P2NTV AYGA-AIBA
Flight info
| Callsign | P2NTV |
|---|---|
| Flight time | N/A |
| Altitude | 13000 |
| Route | 0646S14534E DCT 0615S14459E |
| Aircraft | K100/L-SBDGRY/S |
Departure
| Time | 2026-05-07 19:18 |
|---|---|
| Airport | Goroka Airport (AYGA) |
Arrival
| Time | N/A |
|---|---|
| Airport | AIBA |
| Time | Latitude | Longitude | Altitude | Speed | Heading |
|---|---|---|---|---|---|
| 2026-05-07 18:34 | -6.07874 | 145.39281 | 5219 ft | 0 kts | 175° |
| 2026-05-07 18:35 | -6.07875 | 145.39262 | 5219 ft | 0 kts | 175° |
| 2026-05-07 19:13 | -6.07876 | 145.39262 | 5220 ft | 1 kts | 175° |
| 2026-05-07 19:13 | -6.07905 | 145.39264 | 5216 ft | 6 kts | 180° |
| 2026-05-07 19:13 | -6.07954 | 145.39254 | 5210 ft | 8 kts | 207° |
| 2026-05-07 19:13 | -6.07955 | 145.39215 | 5211 ft | 4 kts | 329° |
| 2026-05-07 19:14 | -6.07944 | 145.39213 | 5213 ft | 0 kts | 355° |
| 2026-05-07 19:14 | -6.07929 | 145.39212 | 5213 ft | 5 kts | 354° |
| 2026-05-07 19:14 | -6.07898 | 145.39209 | 5217 ft | 4 kts | 356° |
| 2026-05-07 19:14 | -6.07873 | 145.39208 | 5220 ft | 3 kts | 356° |
| 2026-05-07 19:15 | -6.07821 | 145.39203 | 5228 ft | 14 kts | 356° |
| 2026-05-07 19:15 | -6.07687 | 145.39192 | 5244 ft | 23 kts | 354° |
| 2026-05-07 19:15 | -6.07575 | 145.39177 | 5255 ft | 9 kts | 333° |
| 2026-05-07 19:15 | -6.07530 | 145.39177 | 5260 ft | 7 kts | 103° |
| 2026-05-07 19:16 | -6.07562 | 145.39180 | 5256 ft | 0 kts | 172° |
| 2026-05-07 19:17 | -6.07568 | 145.39181 | 5255 ft | 12 kts | 172° |
| 2026-05-07 19:17 | -6.07943 | 145.39213 | 5229 ft | 90 kts | 178° |
| 2026-05-07 19:17 | -6.08637 | 145.39229 | 5371 ft | 112 kts | 190° |
| 2026-05-07 19:17 | -6.09444 | 145.39072 | 5530 ft | 121 kts | 191° |
| 2026-05-07 19:18 | -6.10306 | 145.39064 | 5698 ft | 129 kts | 168° |
| 2026-05-07 19:18 | -6.11146 | 145.39403 | 5916 ft | 130 kts | 149° |
| 2026-05-07 19:18 | -6.11756 | 145.40054 | 6317 ft | 126 kts | 114° |
| 2026-05-07 19:18 | -6.11824 | 145.40950 | 6491 ft | 140 kts | 81° |
| 2026-05-07 19:19 | -6.11321 | 145.41737 | 6623 ft | 141 kts | 19° |
| 2026-05-07 19:19 | -6.10340 | 145.41751 | 6663 ft | 145 kts | 348° |
| 2026-05-07 19:19 | -6.09329 | 145.41567 | 6707 ft | 148 kts | 351° |
| 2026-05-07 19:19 | -6.08324 | 145.41378 | 6849 ft | 143 kts | 351° |
| 2026-05-07 19:20 | -6.07332 | 145.41147 | 6917 ft | 150 kts | 352° |
| 2026-05-07 19:20 | -6.06267 | 145.41015 | 6864 ft | 157 kts | 357° |
| 2026-05-07 19:20 | -6.05233 | 145.40838 | 6810 ft | 146 kts | 345° |
| 2026-05-07 19:20 | -6.04270 | 145.40565 | 6729 ft | 142 kts | 345° |
| 2026-05-07 19:21 | -6.03372 | 145.40234 | 6728 ft | 130 kts | 334° |
| 2026-05-07 19:21 | -6.02787 | 145.39615 | 6669 ft | 117 kts | 286° |
| 2026-05-07 19:21 | -6.02965 | 145.38934 | 6540 ft | 101 kts | 212° |
| 2026-05-07 19:21 | -6.03626 | 145.38829 | 6323 ft | 94 kts | 174° |
| 2026-05-07 19:22 | -6.04254 | 145.38899 | 6104 ft | 89 kts | 174° |
| 2026-05-07 19:22 | -6.04894 | 145.38945 | 5922 ft | 95 kts | 177° |
| 2026-05-07 19:22 | -6.05566 | 145.39001 | 5797 ft | 96 kts | 175° |
| 2026-05-07 19:22 | -6.06195 | 145.39064 | 5671 ft | 91 kts | 175° |
| 2026-05-07 19:23 | -6.06814 | 145.39119 | 5504 ft | 84 kts | 175° |
| 2026-05-07 19:23 | -6.07402 | 145.39168 | 5322 ft | 83 kts | 176° |
| 2026-05-07 19:23 | -6.07922 | 145.39209 | 5217 ft | 66 kts | 173° |
| 2026-05-07 19:23 | -6.08266 | 145.39242 | 5181 ft | 49 kts | 176° |
| 2026-05-07 19:24 | -6.08446 | 145.39253 | 5164 ft | 7 kts | 257° |
| 2026-05-07 19:24 | -6.08388 | 145.39247 | 5168 ft | 20 kts | 359° |
| 2026-05-07 19:24 | -6.08234 | 145.39238 | 5184 ft | 22 kts | 356° |
| 2026-05-07 19:24 | -6.08081 | 145.39223 | 5199 ft | 22 kts | 354° |
| 2026-05-07 19:25 | -6.07931 | 145.39211 | 5216 ft | 21 kts | 354° |
| 2026-05-07 19:25 | -6.07794 | 145.39199 | 5234 ft | 19 kts | 355° |
| 2026-05-07 19:25 | -6.07666 | 145.39187 | 5248 ft | 18 kts | 355° |
| 2026-05-07 19:25 | -6.07594 | 145.39232 | 5253 ft | 14 kts | 356° |
| 2026-05-07 19:26 | -6.07500 | 145.39212 | 5267 ft | 14 kts | 316° |
| 2026-05-07 19:26 | -6.07488 | 145.39163 | 5266 ft | 1 kts | 247° |
| 2026-05-07 19:26 | -6.07493 | 145.39163 | 5266 ft | 0 kts | 167° |
| 2026-05-07 19:31 | -6.07496 | 145.39164 | 5265 ft | 4 kts | 157° |
| 2026-05-07 19:31 | -6.07556 | 145.39180 | 5259 ft | 0 kts | 174° |
| 2026-05-07 19:32 | -6.07873 | 145.39206 | 5243 ft | 82 kts | 176° |
| 2026-05-07 19:32 | -6.08541 | 145.39260 | 5420 ft | 108 kts | 181° |
| 2026-05-07 19:32 | -6.09344 | 145.39267 | 5730 ft | 120 kts | 187° |
| 2026-05-07 19:32 | -6.10187 | 145.39259 | 6062 ft | 127 kts | 177° |
| 2026-05-07 19:33 | -6.11038 | 145.39507 | 6392 ft | 128 kts | 162° |
| 2026-05-07 19:33 | -6.11779 | 145.39987 | 6673 ft | 128 kts | 140° |
| 2026-05-07 19:33 | -6.12106 | 145.40803 | 6926 ft | 133 kts | 89° |
| 2026-05-07 19:33 | -6.11640 | 145.41571 | 7281 ft | 135 kts | 36° |
| 2026-05-07 19:34 | -6.10759 | 145.41689 | 7747 ft | 128 kts | 346° |
| 2026-05-07 19:34 | -6.10017 | 145.41210 | 8089 ft | 133 kts | 323° |
| 2026-05-07 19:34 | -6.09258 | 145.40658 | 8366 ft | 135 kts | 332° |
| 2026-05-07 19:34 | -6.08344 | 145.40227 | 8362 ft | 157 kts | 346° |
| 2026-05-07 19:35 | -6.07262 | 145.39970 | 8467 ft | 158 kts | 348° |
| 2026-05-07 19:35 | -6.06388 | 145.39351 | 8637 ft | 156 kts | 300° |
| 2026-05-07 19:35 | -6.06369 | 145.38327 | 8853 ft | 150 kts | 238° |
| 2026-05-07 19:35 | -6.07192 | 145.37795 | 9104 ft | 141 kts | 196° |
| 2026-05-07 19:36 | -6.08082 | 145.37370 | 9357 ft | 143 kts | 212° |
| 2026-05-07 19:36 | -6.08799 | 145.36689 | 9617 ft | 145 kts | 235° |
| 2026-05-07 19:36 | -6.09272 | 145.35789 | 9877 ft | 146 kts | 243° |
| 2026-05-07 19:36 | -6.09714 | 145.34861 | 10106 ft | 148 kts | 242° |
| 2026-05-07 19:37 | -6.10157 | 145.33925 | 10328 ft | 151 kts | 243° |
| 2026-05-07 19:37 | -6.10612 | 145.32946 | 10546 ft | 158 kts | 244° |
| 2026-05-07 19:37 | -6.11072 | 145.31943 | 10765 ft | 158 kts | 242° |
| 2026-05-07 19:37 | -6.11537 | 145.30942 | 10949 ft | 160 kts | 243° |
| 2026-05-07 19:38 | -6.12026 | 145.29887 | 10958 ft | 173 kts | 244° |
| 2026-05-07 19:38 | -6.12544 | 145.28765 | 10963 ft | 180 kts | 242° |
| 2026-05-07 19:38 | -6.13074 | 145.27623 | 10962 ft | 184 kts | 243° |
| 2026-05-07 19:38 | -6.13622 | 145.26445 | 10970 ft | 187 kts | 244° |
| 2026-05-07 19:39 | -6.14168 | 145.25266 | 10968 ft | 186 kts | 243° |
| 2026-05-07 19:39 | -6.14714 | 145.24089 | 10970 ft | 186 kts | 243° |
| 2026-05-07 19:39 | -6.15259 | 145.22913 | 10972 ft | 186 kts | 244° |
| 2026-05-07 19:39 | -6.15803 | 145.21737 | 10972 ft | 186 kts | 243° |
| 2026-05-07 19:40 | -6.16352 | 145.20556 | 10975 ft | 186 kts | 244° |
| 2026-05-07 19:40 | -6.16898 | 145.19377 | 10975 ft | 186 kts | 244° |
| 2026-05-07 19:40 | -6.17444 | 145.18198 | 10973 ft | 186 kts | 243° |
| 2026-05-07 19:40 | -6.17992 | 145.17018 | 10972 ft | 187 kts | 244° |
| 2026-05-07 19:41 | -6.18541 | 145.15831 | 10976 ft | 188 kts | 243° |
| 2026-05-07 19:41 | -6.19090 | 145.14645 | 10970 ft | 186 kts | 243° |
| 2026-05-07 19:41 | -6.19639 | 145.13464 | 10968 ft | 185 kts | 244° |
| 2026-05-07 19:41 | -6.20178 | 145.12294 | 10973 ft | 185 kts | 243° |
| 2026-05-07 19:42 | -6.20720 | 145.11125 | 10972 ft | 185 kts | 244° |
| 2026-05-07 19:42 | -6.21263 | 145.09955 | 10974 ft | 185 kts | 244° |
| 2026-05-07 19:42 | -6.21814 | 145.08765 | 10975 ft | 186 kts | 243° |
| 2026-05-07 19:42 | -6.22360 | 145.07585 | 10966 ft | 186 kts | 243° |
| 2026-05-07 19:43 | -6.23207 | 145.06765 | 11081 ft | 161 kts | 191° |
| 2026-05-07 19:43 | -6.24184 | 145.07100 | 10903 ft | 161 kts | 131° |
| 2026-05-07 19:43 | -6.24684 | 145.08176 | 10268 ft | 183 kts | 98° |
| 2026-05-07 19:43 | -6.24520 | 145.09461 | 9684 ft | 185 kts | 66° |
| 2026-05-07 19:44 | -6.23640 | 145.10300 | 9350 ft | 175 kts | 20° |
| 2026-05-07 19:44 | -6.22488 | 145.10195 | 9121 ft | 168 kts | 330° |
| 2026-05-07 19:44 | -6.21759 | 145.09297 | 8792 ft | 172 kts | 290° |
| 2026-05-07 19:44 | -6.21641 | 145.08080 | 8108 ft | 183 kts | 261° |
| 2026-05-07 19:45 | -6.22114 | 145.06909 | 7437 ft | 180 kts | 233° |
| 2026-05-07 19:45 | -6.22966 | 145.06017 | 7081 ft | 172 kts | 222° |
| 2026-05-07 19:45 | -6.23761 | 145.05200 | 6927 ft | 163 kts | 232° |
| 2026-05-07 19:45 | -6.24375 | 145.04256 | 6827 ft | 158 kts | 243° |
| 2026-05-07 19:46 | -6.24779 | 145.03274 | 6886 ft | 147 kts | 250° |
| 2026-05-07 19:46 | -6.25057 | 145.02241 | 6862 ft | 148 kts | 259° |
| 2026-05-07 19:46 | -6.25225 | 145.01235 | 6909 ft | 151 kts | 260° |
| 2026-05-07 19:46 | -6.25499 | 145.00192 | 6789 ft | 154 kts | 248° |
| 2026-05-07 19:47 | -6.25851 | 144.99196 | 6880 ft | 150 kts | 261° |
| 2026-05-07 19:47 | -6.25748 | 144.98224 | 7443 ft | 134 kts | 293° |
| 2026-05-07 19:47 | -6.25105 | 144.97601 | 7880 ft | 137 kts | 342° |
| 2026-05-07 19:47 | -6.24186 | 144.97776 | 8075 ft | 150 kts | 44° |
| 2026-05-07 19:48 | -6.23677 | 144.98781 | 7899 ft | 175 kts | 74° |
| 2026-05-07 19:48 | -6.23316 | 144.99941 | 7910 ft | 174 kts | 71° |
| 2026-05-07 19:48 | -6.22920 | 145.01025 | 7873 ft | 156 kts | 70° |
| 2026-05-07 19:48 | -6.22837 | 145.02097 | 7714 ft | 156 kts | 107° |
| 2026-05-07 19:49 | -6.23546 | 145.02804 | 7541 ft | 145 kts | 168° |
| 2026-05-07 19:49 | -6.24446 | 145.02537 | 7569 ft | 140 kts | 225° |
| 2026-05-07 19:49 | -6.24889 | 145.01623 | 7246 ft | 155 kts | 249° |
| 2026-05-07 19:49 | -6.25267 | 145.00642 | 7045 ft | 143 kts | 245° |
| 2026-05-07 19:50 | -6.25710 | 144.99821 | 6842 ft | 117 kts | 237° |
| 2026-05-07 19:50 | -6.26105 | 144.99246 | 6707 ft | 93 kts | 232° |
| 2026-05-07 19:50 | -6.26446 | 144.98818 | 6584 ft | 57 kts | 227° |
| 2026-05-07 19:50 | -6.26590 | 144.98633 | 6633 ft | 18 kts | 234° |
| 2026-05-07 19:51 | -6.26656 | 144.98570 | 6651 ft | 0 kts | 98° |
| 2026-05-07 19:51 | -6.26634 | 144.98607 | 6646 ft | 6 kts | 58° |
| 2026-05-07 19:51 | -6.26582 | 144.98682 | 6621 ft | 0 kts | 51° |
| 2026-05-07 19:52 | -6.26579 | 144.98703 | 6617 ft | 4 kts | 127° |
| 2026-05-07 19:52 | -6.26586 | 144.98727 | 6617 ft | 4 kts | 57° |
| 2026-05-07 19:52 | -6.26582 | 144.98728 | 6617 ft | 0 kts | 337° |
| 2026-05-07 20:08 | -6.26573 | 144.98719 | 6616 ft | 6 kts | 300° |
| 2026-05-07 20:09 | -6.26576 | 144.98683 | 6620 ft | 4 kts | 244° |
| 2026-05-07 20:09 | -6.26626 | 144.98627 | 6640 ft | 6 kts | 222° |
| 2026-05-07 20:09 | -6.26656 | 144.98592 | 6650 ft | 10 kts | 244° |
| 2026-05-07 20:10 | -6.26626 | 144.98586 | 6651 ft | 4 kts | 67° |
| 2026-05-07 20:10 | -6.26621 | 144.98591 | 6649 ft | 0 kts | 44° |
| 2026-05-07 20:10 | -6.26447 | 144.98796 | 6592 ft | 82 kts | 44° |
| 2026-05-07 20:10 | -6.25981 | 144.99262 | 6725 ft | 102 kts | 47° |
| 2026-05-07 20:11 | -6.25436 | 144.99701 | 7001 ft | 103 kts | 30° |
| 2026-05-07 20:11 | -6.24719 | 144.99862 | 7240 ft | 111 kts | 358° |
| 2026-05-07 20:11 | -6.23977 | 144.99614 | 7485 ft | 116 kts | 328° |
| 2026-05-07 20:11 | -6.23354 | 144.99100 | 7779 ft | 116 kts | 314° |
| 2026-05-07 20:12 | -6.22830 | 144.98468 | 8056 ft | 118 kts | 311° |
| 2026-05-07 20:12 | -6.22315 | 144.97839 | 8382 ft | 117 kts | 310° |
| 2026-05-07 20:12 | -6.21811 | 144.97197 | 8708 ft | 115 kts | 308° |
| 2026-05-07 20:12 | -6.21366 | 144.96533 | 8953 ft | 116 kts | 300° |
| 2026-05-07 20:13 | -6.20980 | 144.95802 | 9183 ft | 119 kts | 298° |
| 2026-05-07 20:13 | -6.20599 | 144.95067 | 9414 ft | 119 kts | 299° |
| 2026-05-07 20:13 | -6.20206 | 144.94302 | 9592 ft | 129 kts | 298° |
| 2026-05-07 20:13 | -6.19805 | 144.93460 | 9730 ft | 135 kts | 294° |
| 2026-05-07 20:14 | -6.19451 | 144.92565 | 9905 ft | 143 kts | 295° |
| 2026-05-07 20:14 | -6.18854 | 144.91741 | 10084 ft | 149 kts | 317° |
| 2026-05-07 20:14 | -6.18030 | 144.91052 | 10245 ft | 157 kts | 323° |
| 2026-05-07 20:14 | -6.17181 | 144.90359 | 10475 ft | 159 kts | 321° |
| 2026-05-07 20:15 | -6.16619 | 144.89861 | 10526 ft | 165 kts | 320° |
| 2026-05-07 20:15 | -6.15482 | 144.88832 | 10862 ft | 161 kts | 317° |
| 2026-05-07 20:15 | -6.14672 | 144.88088 | 11033 ft | 166 kts | 322° |
| 2026-05-07 20:15 | -6.13718 | 144.87335 | 10920 ft | 181 kts | 322° |
| 2026-05-07 20:16 | -6.12751 | 144.86505 | 10967 ft | 182 kts | 319° |
| 2026-05-07 20:16 | -6.11790 | 144.85673 | 10986 ft | 186 kts | 320° |
| 2026-05-07 20:16 | -6.11140 | 144.85077 | 10991 ft | 187 kts | 318° |
| 2026-05-07 20:16 | -6.10118 | 144.84283 | 11093 ft | 187 kts | 326° |
| 2026-05-07 20:17 | -6.09120 | 144.83435 | 11167 ft | 190 kts | 315° |
| 2026-05-07 20:17 | -6.08160 | 144.82493 | 11214 ft | 196 kts | 319° |
| 2026-05-07 20:17 | -6.07123 | 144.81581 | 11090 ft | 205 kts | 318° |
| 2026-05-07 20:17 | -6.06078 | 144.80602 | 11019 ft | 205 kts | 317° |
| 2026-05-07 20:18 | -6.05060 | 144.79604 | 10987 ft | 203 kts | 316° |
| 2026-05-07 20:18 | -6.04023 | 144.78648 | 10974 ft | 202 kts | 320° |
| 2026-05-07 20:18 | -6.02946 | 144.77725 | 10875 ft | 205 kts | 319° |
| 2026-05-07 20:18 | -6.01880 | 144.76765 | 10753 ft | 207 kts | 320° |
| 2026-05-07 20:19 | -6.00809 | 144.75783 | 10630 ft | 208 kts | 316° |
| 2026-05-07 20:19 | -5.99769 | 144.74786 | 10593 ft | 205 kts | 317° |
| 2026-05-07 20:19 | -5.98712 | 144.73844 | 10617 ft | 199 kts | 322° |
| 2026-05-07 20:19 | -5.97602 | 144.73049 | 10664 ft | 197 kts | 327° |
| 2026-05-07 20:20 | -5.96472 | 144.72234 | 10548 ft | 203 kts | 323° |
| 2026-05-07 20:20 | -5.95377 | 144.71324 | 10404 ft | 205 kts | 320° |
| 2026-05-07 20:20 | -5.94303 | 144.70363 | 10203 ft | 208 kts | 319° |
| 2026-05-07 20:20 | -5.93218 | 144.69393 | 9958 ft | 205 kts | 320° |
| 2026-05-07 20:21 | -5.92181 | 144.68509 | 9641 ft | 189 kts | 321° |
| 2026-05-07 20:21 | -5.91185 | 144.67676 | 9271 ft | 185 kts | 320° |
| 2026-05-07 20:21 | -5.90253 | 144.66794 | 8908 ft | 183 kts | 316° |
| 2026-05-07 20:21 | -5.89357 | 144.65904 | 8590 ft | 180 kts | 316° |
| 2026-05-07 20:22 | -5.88462 | 144.65027 | 8249 ft | 180 kts | 316° |
| 2026-05-07 20:22 | -5.87546 | 144.64176 | 7961 ft | 177 kts | 319° |
| 2026-05-07 20:22 | -5.86599 | 144.63412 | 7744 ft | 173 kts | 324° |
| 2026-05-07 20:22 | -5.85597 | 144.62716 | 7431 ft | 178 kts | 324° |
| 2026-05-07 20:23 | -5.84613 | 144.61974 | 7218 ft | 175 kts | 322° |
| 2026-05-07 20:23 | -5.83672 | 144.61184 | 6901 ft | 178 kts | 318° |
| 2026-05-07 20:23 | -5.82736 | 144.60374 | 6567 ft | 177 kts | 320° |
| 2026-05-07 20:23 | -5.81781 | 144.59619 | 6297 ft | 172 kts | 323° |
| 2026-05-07 20:24 | -5.80825 | 144.58926 | 6168 ft | 167 kts | 324° |
| 2026-05-07 20:24 | -5.79885 | 144.58263 | 6042 ft | 165 kts | 323° |
| 2026-05-07 20:24 | -5.78990 | 144.57552 | 5972 ft | 162 kts | 321° |
| 2026-05-07 20:24 | -5.78122 | 144.56854 | 5953 ft | 159 kts | 320° |
| 2026-05-07 20:25 | -5.77286 | 144.56105 | 5892 ft | 160 kts | 316° |
| 2026-05-07 20:25 | -5.76504 | 144.55328 | 5826 ft | 161 kts | 311° |
| 2026-05-07 20:25 | -5.75761 | 144.54496 | 5800 ft | 158 kts | 310° |
| 2026-05-07 20:25 | -5.75041 | 144.53733 | 5840 ft | 143 kts | 325° |
| 2026-05-07 20:26 | -5.74157 | 144.53513 | 5958 ft | 121 kts | 28° |
| 2026-05-07 20:26 | -5.73842 | 144.54108 | 6179 ft | 99 kts | 119° |
| 2026-05-07 20:26 | -5.74393 | 144.54557 | 6090 ft | 105 kts | 149° |
| 2026-05-07 20:26 | -5.75058 | 144.54828 | 5955 ft | 99 kts | 159° |
| 2026-05-07 20:27 | -5.75660 | 144.55017 | 5780 ft | 77 kts | 163° |
| 2026-05-07 20:27 | -5.76190 | 144.55168 | 5657 ft | 82 kts | 162° |
| 2026-05-07 20:27 | -5.76724 | 144.55322 | 5498 ft | 77 kts | 165° |
| 2026-05-07 20:27 | -5.77208 | 144.55452 | 5311 ft | 70 kts | 164° |
| 2026-05-07 20:28 | -5.77694 | 144.55581 | 5174 ft | 69 kts | 166° |
| 2026-05-07 20:28 | -5.78112 | 144.55690 | 5077 ft | 58 kts | 164° |
| 2026-05-07 20:28 | -5.78464 | 144.55769 | 5053 ft | 33 kts | 167° |
| 2026-05-07 20:28 | -5.78593 | 144.55744 | 5047 ft | 0 kts | 141° |
| 2026-05-07 20:29 | -5.78589 | 144.55757 | 5047 ft | 15 kts | 89° |
| 2026-05-07 20:29 | -5.78583 | 144.55763 | 5049 ft | 1 kts | 1° |
| 2026-05-07 20:29 | -5.78556 | 144.55742 | 5050 ft | 4 kts | 312° |
| 2026-05-07 20:29 | -5.78514 | 144.55721 | 5053 ft | 3 kts | 21° |
| 2026-05-07 20:30 | -5.78513 | 144.55722 | 5053 ft | 0 kts | 25° |
| 2026-05-07 20:47 | -5.78512 | 144.55722 | 5048 ft | 0 kts | 25° |
| 2026-05-07 20:47 | -5.78501 | 144.55727 | 5054 ft | 1 kts | 20° |
| 2026-05-07 20:47 | -5.78502 | 144.55726 | 5054 ft | 0 kts | 20° |
| 2026-05-07 20:49 | -5.78496 | 144.55730 | 5053 ft | 4 kts | 30° |
| 2026-05-07 20:49 | -5.78324 | 144.55737 | 5063 ft | 61 kts | 347° |
| 2026-05-07 20:49 | -5.77763 | 144.55580 | 5262 ft | 98 kts | 352° |
| 2026-05-07 20:50 | -5.77002 | 144.55428 | 5472 ft | 125 kts | 351° |
| 2026-05-07 20:50 | -5.76088 | 144.55415 | 5795 ft | 134 kts | 22° |
| 2026-05-07 20:50 | -5.75412 | 144.55973 | 6317 ft | 128 kts | 66° |
| 2026-05-07 20:50 | -5.75167 | 144.56841 | 6730 ft | 131 kts | 85° |
| 2026-05-07 20:51 | -5.75098 | 144.57805 | 6916 ft | 147 kts | 90° |
| 2026-05-07 20:51 | -5.75087 | 144.58851 | 7119 ft | 151 kts | 90° |
| 2026-05-07 20:51 | -5.75082 | 144.59912 | 7331 ft | 153 kts | 91° |
| 2026-05-07 20:51 | -5.75120 | 144.60993 | 7532 ft | 156 kts | 97° |
| 2026-05-07 20:52 | -5.75145 | 144.62097 | 7747 ft | 160 kts | 84° |
| 2026-05-07 20:52 | -5.74813 | 144.63166 | 7985 ft | 161 kts | 67° |
| 2026-05-07 20:52 | -5.74345 | 144.64184 | 8229 ft | 163 kts | 66° |
| 2026-05-07 20:52 | -5.73866 | 144.65219 | 8509 ft | 161 kts | 66° |
| 2026-05-07 20:53 | -5.73411 | 144.66194 | 8985 ft | 148 kts | 66° |
| 2026-05-07 20:53 | -5.72986 | 144.67102 | 9398 ft | 143 kts | 66° |
| 2026-05-07 20:53 | -5.72563 | 144.68018 | 9742 ft | 143 kts | 66° |
| 2026-05-07 20:53 | -5.72137 | 144.68936 | 10082 ft | 147 kts | 65° |
| 2026-05-07 20:54 | -5.71703 | 144.69874 | 10397 ft | 149 kts | 66° |
| 2026-05-07 20:54 | -5.71264 | 144.70818 | 10696 ft | 149 kts | 66° |
| 2026-05-07 20:54 | -5.70824 | 144.71766 | 11022 ft | 150 kts | 66° |
| 2026-05-07 20:54 | -5.70385 | 144.72713 | 11349 ft | 149 kts | 66° |
| 2026-05-07 20:55 | -5.69946 | 144.73655 | 11680 ft | 148 kts | 67° |
| 2026-05-07 20:55 | -5.69510 | 144.74598 | 11943 ft | 154 kts | 66° |
| 2026-05-07 20:55 | -5.69035 | 144.75630 | 11949 ft | 171 kts | 67° |
| 2026-05-07 20:55 | -5.68518 | 144.76746 | 11956 ft | 181 kts | 66° |
| 2026-05-07 20:56 | -5.67976 | 144.77907 | 11957 ft | 185 kts | 66° |
| 2026-05-07 20:56 | -5.67431 | 144.79078 | 11961 ft | 185 kts | 66° |
| 2026-05-07 20:56 | -5.66884 | 144.80250 | 11955 ft | 187 kts | 66° |
| 2026-05-07 20:56 | -5.66335 | 144.81433 | 11955 ft | 187 kts | 66° |
| 2026-05-07 20:57 | -5.65783 | 144.82623 | 11957 ft | 189 kts | 66° |
| 2026-05-07 20:57 | -5.65229 | 144.83816 | 11951 ft | 188 kts | 66° |
| 2026-05-07 20:57 | -5.64700 | 144.84951 | 11936 ft | 167 kts | 66° |
| 2026-05-07 20:57 | -5.64233 | 144.85947 | 11939 ft | 151 kts | 66° |
| 2026-05-07 20:58 | -5.63804 | 144.86869 | 11942 ft | 144 kts | 67° |
| 2026-05-07 20:58 | -5.63380 | 144.87787 | 11943 ft | 145 kts | 68° |
| 2026-05-07 20:58 | -5.62954 | 144.88709 | 11941 ft | 145 kts | 67° |
| 2026-05-07 20:58 | -5.62526 | 144.89629 | 11939 ft | 146 kts | 67° |
| 2026-05-07 20:59 | -5.62102 | 144.90542 | 11939 ft | 147 kts | 66° |
| 2026-05-07 20:59 | -5.61672 | 144.91466 | 11947 ft | 146 kts | 67° |
| 2026-05-07 20:59 | -5.61261 | 144.92360 | 11941 ft | 133 kts | 67° |
| 2026-05-07 20:59 | -5.60865 | 144.93218 | 11915 ft | 141 kts | 66° |
| 2026-05-07 21:00 | -5.60438 | 144.94132 | 11920 ft | 146 kts | 66° |
| 2026-05-07 21:00 | -5.60006 | 144.95063 | 11926 ft | 148 kts | 67° |
| 2026-05-07 21:00 | -5.59565 | 144.96002 | 11921 ft | 149 kts | 66° |
| 2026-05-07 21:00 | -5.59124 | 144.96946 | 11923 ft | 149 kts | 66° |
| 2026-05-07 21:01 | -5.58826 | 144.97584 | 11920 ft | 150 kts | 66° |
| 2026-05-07 21:01 | -5.58392 | 144.98520 | 11915 ft | 150 kts | 66° |
| 2026-05-07 21:01 | -5.57799 | 144.99795 | 11918 ft | 151 kts | 66° |
| 2026-05-07 21:01 | -5.57499 | 145.00444 | 11921 ft | 152 kts | 66° |
| 2026-05-07 21:02 | -5.57051 | 145.01408 | 11915 ft | 152 kts | 67° |
| 2026-05-07 21:02 | -5.56610 | 145.02355 | 11915 ft | 151 kts | 67° |
| 2026-05-07 21:02 | -5.56165 | 145.03311 | 11914 ft | 151 kts | 67° |
| 2026-05-07 21:02 | -5.55722 | 145.04264 | 11914 ft | 150 kts | 67° |
| 2026-05-07 21:03 | -5.55279 | 145.05213 | 11914 ft | 150 kts | 67° |
| 2026-05-07 21:03 | -5.54840 | 145.06158 | 11906 ft | 151 kts | 67° |
| 2026-05-07 21:03 | -5.54394 | 145.07118 | 11905 ft | 151 kts | 67° |
| 2026-05-07 21:03 | -5.53952 | 145.08067 | 11906 ft | 150 kts | 67° |
| 2026-05-07 21:04 | -5.53510 | 145.09015 | 11905 ft | 150 kts | 67° |
| 2026-05-07 21:04 | -5.53069 | 145.09966 | 11904 ft | 151 kts | 67° |
| 2026-05-07 21:04 | -5.52627 | 145.10917 | 11904 ft | 150 kts | 67° |
| 2026-05-07 21:04 | -5.52184 | 145.11868 | 11904 ft | 150 kts | 67° |
| 2026-05-07 21:05 | -5.51744 | 145.12813 | 11898 ft | 150 kts | 67° |
| 2026-05-07 21:05 | -5.51301 | 145.13764 | 11899 ft | 150 kts | 67° |
| 2026-05-07 21:05 | -5.50859 | 145.14714 | 11900 ft | 150 kts | 67° |
| 2026-05-07 21:05 | -5.50418 | 145.15664 | 11900 ft | 150 kts | 67° |
| 2026-05-07 21:06 | -5.49975 | 145.16616 | 11866 ft | 150 kts | 67° |
| 2026-05-07 21:06 | -5.49532 | 145.17567 | 11866 ft | 151 kts | 67° |
| 2026-05-07 21:06 | -5.49089 | 145.18519 | 11867 ft | 151 kts | 67° |
| 2026-05-07 21:06 | -5.48646 | 145.19471 | 11867 ft | 150 kts | 67° |
| 2026-05-07 21:07 | -5.48203 | 145.20423 | 11865 ft | 150 kts | 67° |
| 2026-05-07 21:07 | -5.47760 | 145.21375 | 11865 ft | 151 kts | 67° |
| 2026-05-07 21:07 | -5.47316 | 145.22327 | 11866 ft | 151 kts | 67° |
| 2026-05-07 21:07 | -5.46873 | 145.23280 | 11866 ft | 151 kts | 67° |
| 2026-05-07 21:08 | -5.46438 | 145.24216 | 11863 ft | 151 kts | 67° |
| 2026-05-07 21:08 | -5.45994 | 145.25168 | 11863 ft | 150 kts | 67° |
| 2026-05-07 21:08 | -5.45551 | 145.26120 | 11863 ft | 150 kts | 67° |
| 2026-05-07 21:08 | -5.45101 | 145.27085 | 11859 ft | 150 kts | 67° |
| 2026-05-07 21:09 | -5.44660 | 145.28034 | 11857 ft | 149 kts | 67° |
| 2026-05-07 21:09 | -5.44227 | 145.28962 | 11857 ft | 150 kts | 67° |
| 2026-05-07 21:09 | -5.43778 | 145.29926 | 11858 ft | 150 kts | 67° |
| 2026-05-07 21:09 | -5.43344 | 145.30858 | 11858 ft | 150 kts | 67° |
| 2026-05-07 21:10 | -5.42902 | 145.31809 | 11859 ft | 150 kts | 67° |
| 2026-05-07 21:10 | -5.42460 | 145.32757 | 11859 ft | 150 kts | 67° |
| 2026-05-07 21:10 | -5.42020 | 145.33702 | 11860 ft | 150 kts | 67° |
| 2026-05-07 21:10 | -5.41577 | 145.34653 | 11860 ft | 151 kts | 67° |
| 2026-05-07 21:11 | -5.41135 | 145.35602 | 11859 ft | 150 kts | 67° |
| 2026-05-07 21:11 | -5.40691 | 145.36554 | 11859 ft | 150 kts | 67° |
| 2026-05-07 21:11 | -5.39805 | 145.38455 | 11858 ft | 151 kts | 67° |
| 2026-05-07 21:12 | -5.39364 | 145.39403 | 11853 ft | 150 kts | 67° |
| 2026-05-07 21:12 | -5.38918 | 145.40360 | 11845 ft | 151 kts | 67° |
| 2026-05-07 21:12 | -5.38474 | 145.41314 | 11845 ft | 151 kts | 67° |
| 2026-05-07 21:12 | -5.38029 | 145.42270 | 11769 ft | 155 kts | 67° |
| 2026-05-07 21:13 | -5.37553 | 145.43296 | 11466 ft | 165 kts | 67° |
| 2026-05-07 21:13 | -5.37062 | 145.44354 | 11151 ft | 170 kts | 67° |
| 2026-05-07 21:13 | -5.36557 | 145.45438 | 10808 ft | 173 kts | 67° |
| 2026-05-07 21:13 | -5.36056 | 145.46513 | 10472 ft | 174 kts | 67° |
| 2026-05-07 21:14 | -5.35545 | 145.47612 | 10125 ft | 174 kts | 67° |
| 2026-05-07 21:14 | -5.35034 | 145.48706 | 9786 ft | 173 kts | 66° |
| 2026-05-07 21:14 | -5.34523 | 145.49803 | 9410 ft | 173 kts | 66° |
| 2026-05-07 21:14 | -5.34011 | 145.50904 | 9037 ft | 173 kts | 66° |
| 2026-05-07 21:15 | -5.33502 | 145.51996 | 8674 ft | 173 kts | 66° |
| 2026-05-07 21:15 | -5.32993 | 145.53089 | 8307 ft | 173 kts | 66° |
| 2026-05-07 21:15 | -5.32425 | 145.54146 | 7925 ft | 169 kts | 51° |
| 2026-05-07 21:15 | -5.31779 | 145.55133 | 7482 ft | 171 kts | 56° |
| 2026-05-07 21:16 | -5.31300 | 145.56225 | 7054 ft | 171 kts | 69° |
| 2026-05-07 21:16 | -5.30837 | 145.57319 | 6698 ft | 170 kts | 63° |
| 2026-05-07 21:16 | -5.30353 | 145.58406 | 6348 ft | 171 kts | 67° |
| 2026-05-07 21:16 | -5.29920 | 145.59512 | 5993 ft | 171 kts | 70° |
| 2026-05-07 21:17 | -5.29471 | 145.60614 | 5630 ft | 170 kts | 67° |
| 2026-05-07 21:17 | -5.28977 | 145.61692 | 5269 ft | 170 kts | 65° |
| 2026-05-07 21:17 | -5.28473 | 145.62767 | 4904 ft | 170 kts | 65° |
| 2026-05-07 21:17 | -5.27971 | 145.63840 | 4551 ft | 169 kts | 65° |
| 2026-05-07 21:18 | -5.27472 | 145.64909 | 4183 ft | 168 kts | 65° |
| 2026-05-07 21:18 | -5.26978 | 145.65967 | 3820 ft | 167 kts | 66° |
| 2026-05-07 21:18 | -5.26488 | 145.67021 | 3459 ft | 166 kts | 66° |
| 2026-05-07 21:18 | -5.26000 | 145.68065 | 3107 ft | 165 kts | 66° |
| 2026-05-07 21:19 | -5.25514 | 145.69105 | 2766 ft | 163 kts | 66° |
| 2026-05-07 21:19 | -5.25052 | 145.70088 | 2747 ft | 150 kts | 66° |
| 2026-05-07 21:19 | -5.24612 | 145.71029 | 2742 ft | 146 kts | 66° |
| 2026-05-07 21:19 | -5.24181 | 145.71954 | 2741 ft | 146 kts | 66° |
| 2026-05-07 21:20 | -5.23746 | 145.72892 | 2594 ft | 152 kts | 66° |
| 2026-05-07 21:20 | -5.23296 | 145.73861 | 2402 ft | 154 kts | 66° |
| 2026-05-07 21:20 | -5.22844 | 145.74833 | 2208 ft | 155 kts | 66° |
| 2026-05-07 21:20 | -5.22397 | 145.75783 | 2149 ft | 149 kts | 66° |
| 2026-05-07 21:21 | -5.21962 | 145.76710 | 2148 ft | 146 kts | 66° |
| 2026-05-07 21:21 | -5.21533 | 145.77631 | 2149 ft | 145 kts | 66° |
| 2026-05-07 21:21 | -5.21105 | 145.78548 | 2149 ft | 145 kts | 67° |
| 2026-05-07 21:21 | -5.20677 | 145.79471 | 2149 ft | 146 kts | 67° |
| 2026-05-07 21:22 | -5.20247 | 145.80390 | 2142 ft | 145 kts | 67° |
| 2026-05-07 21:22 | -5.19815 | 145.81315 | 2141 ft | 145 kts | 66° |
| 2026-05-07 21:22 | -5.19382 | 145.82228 | 2134 ft | 145 kts | 62° |
| 2026-05-07 21:22 | -5.18599 | 145.82873 | 2072 ft | 153 kts | 18° |
| 2026-05-07 21:23 | -5.17561 | 145.82669 | 2032 ft | 160 kts | 324° |
| 2026-05-07 21:23 | -5.17024 | 145.81694 | 1872 ft | 166 kts | 274° |
| 2026-05-07 21:23 | -5.17191 | 145.80570 | 1796 ft | 163 kts | 253° |
| 2026-05-07 21:23 | -5.17525 | 145.79488 | 1684 ft | 163 kts | 254° |
| 2026-05-07 21:24 | -5.17774 | 145.78373 | 1548 ft | 164 kts | 256° |
| 2026-05-07 21:24 | -5.18059 | 145.77297 | 1444 ft | 153 kts | 252° |
| 2026-05-07 21:24 | -5.18386 | 145.76342 | 1308 ft | 136 kts | 249° |
| 2026-05-07 21:24 | -5.18731 | 145.75490 | 1149 ft | 126 kts | 246° |
| 2026-05-07 21:25 | -5.19107 | 145.74744 | 1019 ft | 113 kts | 232° |
| 2026-05-07 21:25 | -5.19707 | 145.74385 | 975 ft | 99 kts | 185° |
| 2026-05-07 21:25 | -5.20334 | 145.74554 | 936 ft | 90 kts | 149° |
| 2026-05-07 21:25 | -5.20790 | 145.74881 | 897 ft | 72 kts | 137° |
| 2026-05-07 21:26 | -5.21168 | 145.75261 | 837 ft | 84 kts | 129° |
| 2026-05-07 21:26 | -5.21438 | 145.75749 | 760 ft | 71 kts | 105° |
| 2026-05-07 21:26 | -5.21479 | 145.76208 | 592 ft | 64 kts | 85° |
| 2026-05-07 21:26 | -5.21411 | 145.76656 | 436 ft | 66 kts | 79° |
| 2026-05-07 21:27 | -5.21305 | 145.77125 | 315 ft | 71 kts | 77° |
| 2026-05-07 21:27 | -5.21179 | 145.77619 | 193 ft | 72 kts | 77° |
| 2026-05-07 21:27 | -5.21058 | 145.78071 | 64 ft | 63 kts | 75° |
| 2026-05-07 21:27 | -5.20949 | 145.78474 | 21 ft | 57 kts | 76° |
| 2026-05-07 21:28 | -5.20937 | 145.78665 | 20 ft | 17 kts | 161° |
| 2026-05-07 21:28 | -5.20964 | 145.78731 | 24 ft | 14 kts | 73° |
| 2026-05-07 21:28 | -5.20967 | 145.78761 | 25 ft | 5 kts | 211° |
| 2026-05-07 21:28 | -5.20979 | 145.78742 | 23 ft | 7 kts | 250° |
| 2026-05-07 21:29 | -5.20993 | 145.78727 | 26 ft | 5 kts | 222° |
| 2026-05-07 21:29 | -5.21003 | 145.78719 | 23 ft | 0 kts | 206° |
| 2026-05-07 21:30 | -5.20979 | 145.78723 | 22 ft | 8 kts | 59° |
| 2026-05-07 21:30 | -5.20966 | 145.78780 | 28 ft | 10 kts | 97° |
| 2026-05-07 21:30 | -5.20979 | 145.78793 | 24 ft | 3 kts | 202° |
| 2026-05-07 21:31 | -5.20999 | 145.78783 | 23 ft | 0 kts | 207° |
| 2026-05-07 21:50 | -5.21001 | 145.78788 | 17 ft | 0 kts | 167° |
| 2026-05-07 21:56 | -5.21002 | 145.78792 | 20 ft | 1 kts | 69° |
| 2026-05-07 21:56 | -5.20988 | 145.78787 | 23 ft | 6 kts | 327° |
| 2026-05-07 21:57 | -5.20976 | 145.78735 | 22 ft | 11 kts | 271° |
| 2026-05-07 21:57 | -5.20953 | 145.78669 | 21 ft | 9 kts | 339° |
| 2026-05-07 21:57 | -5.20899 | 145.78674 | 21 ft | 0 kts | 75° |
| 2026-05-07 21:57 | -5.20861 | 145.78825 | 25 ft | 61 kts | 76° |
| 2026-05-07 21:58 | -5.20691 | 145.79402 | 182 ft | 104 kts | 76° |
| 2026-05-07 21:58 | -5.20646 | 145.80164 | 529 ft | 116 kts | 109° |
| 2026-05-07 21:58 | -5.21153 | 145.80814 | 954 ft | 127 kts | 151° |
| 2026-05-07 21:58 | -5.22037 | 145.80902 | 1320 ft | 136 kts | 201° |
| 2026-05-07 21:59 | -5.22761 | 145.80284 | 1719 ft | 141 kts | 238° |
| 2026-05-07 21:59 | -5.23230 | 145.79391 | 2044 ft | 148 kts | 246° |
| 2026-05-07 21:59 | -5.23699 | 145.78449 | 2340 ft | 154 kts | 241° |
| 2026-05-07 21:59 | -5.24281 | 145.77566 | 2734 ft | 151 kts | 236° |
| 2026-05-07 22:00 | -5.24909 | 145.76723 | 3089 ft | 150 kts | 231° |
| 2026-05-07 22:00 | -5.25653 | 145.76020 | 3487 ft | 146 kts | 217° |
| 2026-05-07 22:00 | -5.26458 | 145.75418 | 3878 ft | 144 kts | 230° |
| 2026-05-07 22:00 | -5.27231 | 145.74832 | 4232 ft | 142 kts | 187° |
| 2026-05-07 22:01 | -5.28208 | 145.74834 | 4609 ft | 141 kts | 185° |
| 2026-05-07 22:01 | -5.29152 | 145.74527 | 4987 ft | 146 kts | 202° |
| 2026-05-07 22:01 | -5.30096 | 145.74120 | 5351 ft | 151 kts | 202° |
| 2026-05-07 22:01 | -5.31055 | 145.73700 | 5713 ft | 153 kts | 202° |
| 2026-05-07 22:02 | -5.31721 | 145.73405 | 5966 ft | 155 kts | 203° |
| 2026-05-07 22:02 | -5.32708 | 145.72968 | 6332 ft | 156 kts | 203° |
| 2026-05-07 22:02 | -5.34019 | 145.72388 | 6789 ft | 156 kts | 202° |
| 2026-05-07 22:02 | -5.35016 | 145.71946 | 7135 ft | 156 kts | 202° |
| 2026-05-07 22:03 | -5.35689 | 145.71648 | 7372 ft | 155 kts | 201° |
| 2026-05-07 22:03 | -5.36994 | 145.71070 | 7841 ft | 154 kts | 201° |
| 2026-05-07 22:03 | -5.37974 | 145.70637 | 8199 ft | 154 kts | 202° |
| 2026-05-07 22:03 | -5.38637 | 145.70344 | 8444 ft | 154 kts | 202° |
| 2026-05-07 22:04 | -5.39617 | 145.69909 | 8809 ft | 154 kts | 202° |
| 2026-05-07 22:04 | -5.40600 | 145.69472 | 9177 ft | 154 kts | 202° |
| 2026-05-07 22:04 | -5.41583 | 145.69035 | 9563 ft | 155 kts | 202° |
| 2026-05-07 22:04 | -5.42554 | 145.68604 | 9923 ft | 154 kts | 202° |
| 2026-05-07 22:05 | -5.43529 | 145.68172 | 10266 ft | 152 kts | 202° |
| 2026-05-07 22:05 | -5.44519 | 145.67731 | 10481 ft | 160 kts | 203° |
| 2026-05-07 22:05 | -5.45558 | 145.67267 | 10670 ft | 167 kts | 202° |
| 2026-05-07 22:05 | -5.46634 | 145.66791 | 10857 ft | 171 kts | 202° |
| 2026-05-07 22:06 | -5.47730 | 145.66304 | 11051 ft | 174 kts | 202° |
| 2026-05-07 22:06 | -5.48848 | 145.65809 | 11238 ft | 173 kts | 202° |
| 2026-05-07 22:06 | -5.49949 | 145.65322 | 11426 ft | 172 kts | 202° |
| 2026-05-07 22:06 | -5.51044 | 145.64836 | 11617 ft | 172 kts | 202° |
| 2026-05-07 22:07 | -5.52123 | 145.64357 | 11804 ft | 172 kts | 202° |
| 2026-05-07 22:07 | -5.53218 | 145.63870 | 11923 ft | 177 kts | 202° |
| 2026-05-07 22:07 | -5.54376 | 145.63353 | 11947 ft | 185 kts | 202° |
| 2026-05-07 22:07 | -5.55567 | 145.62824 | 11947 ft | 189 kts | 202° |
| 2026-05-07 22:08 | -5.56778 | 145.62289 | 11954 ft | 191 kts | 202° |
| 2026-05-07 22:08 | -5.57999 | 145.61747 | 11945 ft | 192 kts | 202° |
| 2026-05-07 22:08 | -5.59227 | 145.61201 | 11952 ft | 193 kts | 202° |
| 2026-05-07 22:08 | -5.60452 | 145.60657 | 11955 ft | 193 kts | 202° |
| 2026-05-07 22:09 | -5.61675 | 145.60109 | 11953 ft | 192 kts | 202° |
| 2026-05-07 22:09 | -5.62896 | 145.59569 | 11954 ft | 192 kts | 202° |
| 2026-05-07 22:09 | -5.64125 | 145.59030 | 11955 ft | 193 kts | 202° |
| 2026-05-07 22:09 | -5.65351 | 145.58486 | 11953 ft | 193 kts | 202° |
| 2026-05-07 22:10 | -5.66571 | 145.57926 | 11975 ft | 193 kts | 204° |
| 2026-05-07 22:10 | -5.67761 | 145.57292 | 11983 ft | 194 kts | 205° |
| 2026-05-07 22:10 | -5.68975 | 145.56700 | 11985 ft | 194 kts | 202° |
| 2026-05-07 22:10 | -5.70204 | 145.56149 | 11984 ft | 194 kts | 201° |
| 2026-05-07 22:11 | -5.71438 | 145.55605 | 11980 ft | 193 kts | 201° |
| 2026-05-07 22:11 | -5.72664 | 145.55059 | 11982 ft | 193 kts | 201° |
| 2026-05-07 22:11 | -5.73875 | 145.54517 | 11974 ft | 193 kts | 201° |
| 2026-05-07 22:11 | -5.75101 | 145.53967 | 11984 ft | 193 kts | 201° |
| 2026-05-07 22:12 | -5.76328 | 145.53417 | 11973 ft | 193 kts | 201° |
| 2026-05-07 22:12 | -5.77555 | 145.52867 | 12009 ft | 193 kts | 201° |
| 2026-05-07 22:12 | -5.78777 | 145.52320 | 12011 ft | 193 kts | 201° |
| 2026-05-07 22:12 | -5.80007 | 145.51769 | 12014 ft | 194 kts | 201° |
| 2026-05-07 22:13 | -5.81244 | 145.51216 | 12012 ft | 194 kts | 201° |
| 2026-05-07 22:13 | -5.82476 | 145.50663 | 12011 ft | 194 kts | 202° |
| 2026-05-07 22:13 | -5.83710 | 145.50110 | 12014 ft | 195 kts | 201° |
| 2026-05-07 22:13 | -5.84948 | 145.49556 | 12014 ft | 195 kts | 201° |
| 2026-05-07 22:14 | -5.86185 | 145.49002 | 12010 ft | 195 kts | 201° |
| 2026-05-07 22:14 | -5.87423 | 145.48447 | 12012 ft | 196 kts | 201° |
| 2026-05-07 22:14 | -5.88675 | 145.47877 | 12019 ft | 198 kts | 200° |
| 2026-05-07 22:14 | -5.89936 | 145.47314 | 12026 ft | 198 kts | 201° |
| 2026-05-07 22:15 | -5.91195 | 145.46766 | 12030 ft | 197 kts | 201° |
| 2026-05-07 22:15 | -5.92435 | 145.46207 | 12029 ft | 195 kts | 202° |
| 2026-05-07 22:15 | -5.93675 | 145.45645 | 11945 ft | 198 kts | 201° |
| 2026-05-07 22:15 | -5.94952 | 145.45073 | 11500 ft | 200 kts | 200° |
| 2026-05-07 22:16 | -5.96222 | 145.44502 | 11013 ft | 199 kts | 200° |
| 2026-05-07 22:16 | -5.97484 | 145.43924 | 10516 ft | 199 kts | 203° |
| 2026-05-07 22:16 | -5.98729 | 145.43349 | 10033 ft | 196 kts | 202° |
| 2026-05-07 22:16 | -5.99979 | 145.42820 | 9509 ft | 194 kts | 200° |
| 2026-05-07 22:17 | -6.01211 | 145.42285 | 9006 ft | 193 kts | 200° |
| 2026-05-07 22:17 | -6.02442 | 145.41733 | 8498 ft | 194 kts | 203° |
| 2026-05-07 22:17 | -6.03661 | 145.41175 | 8004 ft | 192 kts | 203° |
| 2026-05-07 22:17 | -6.04876 | 145.40630 | 7506 ft | 190 kts | 203° |
| 2026-05-07 22:18 | -6.06075 | 145.40089 | 7022 ft | 188 kts | 203° |
| 2026-05-07 22:18 | -6.08302 | 145.39155 | 6837 ft | 162 kts | 197° |
| 2026-05-07 22:18 | -6.09355 | 145.38735 | 6782 ft | 160 kts | 203° |
| 2026-05-07 22:19 | -6.10354 | 145.38286 | 6798 ft | 158 kts | 202° |
| 2026-05-07 22:19 | -6.11397 | 145.37970 | 6770 ft | 157 kts | 187° |
| 2026-05-07 22:19 | -6.12485 | 145.38011 | 6738 ft | 156 kts | 173° |
| 2026-05-07 22:19 | -6.13591 | 145.38140 | 6637 ft | 161 kts | 172° |
| 2026-05-07 22:20 | -6.14685 | 145.38307 | 6496 ft | 155 kts | 171° |
| 2026-05-07 22:20 | -6.15699 | 145.38472 | 6296 ft | 142 kts | 172° |
| 2026-05-07 22:20 | -6.16627 | 145.38604 | 6122 ft | 126 kts | 173° |
| 2026-05-07 22:20 | -6.17489 | 145.38683 | 5859 ft | 120 kts | 175° |
| 2026-05-07 22:21 | -6.18170 | 145.38940 | 5717 ft | 94 kts | 128° |
| 2026-05-07 22:21 | -6.18142 | 145.39517 | 5609 ft | 94 kts | 56° |
| 2026-05-07 22:21 | -6.17642 | 145.39995 | 5562 ft | 104 kts | 21° |
| 2026-05-07 22:21 | -6.16923 | 145.40020 | 5551 ft | 105 kts | 353° |
| 2026-05-07 22:22 | -6.16261 | 145.39936 | 5582 ft | 90 kts | 353° |
| 2026-05-07 22:22 | -6.15654 | 145.39862 | 5560 ft | 87 kts | 353° |
| 2026-05-07 22:22 | -6.15045 | 145.39798 | 5525 ft | 89 kts | 355° |
| 2026-05-07 22:22 | -6.14431 | 145.39738 | 5487 ft | 89 kts | 357° |
| 2026-05-07 22:23 | -6.13812 | 145.39706 | 5491 ft | 88 kts | 356° |
| 2026-05-07 22:23 | -6.13266 | 145.39659 | 5448 ft | 75 kts | 353° |
| 2026-05-07 22:23 | -6.12730 | 145.39612 | 5407 ft | 78 kts | 357° |
| 2026-05-07 22:23 | -6.12185 | 145.39578 | 5414 ft | 82 kts | 357° |
| 2026-05-07 22:24 | -6.11620 | 145.39537 | 5402 ft | 82 kts | 357° |
| 2026-05-07 22:24 | -6.11054 | 145.39484 | 5356 ft | 83 kts | 356° |
| 2026-05-07 22:24 | -6.10470 | 145.39424 | 5313 ft | 86 kts | 358° |
| 2026-05-07 22:24 | -6.09870 | 145.39397 | 5290 ft | 87 kts | 354° |
| 2026-05-07 22:25 | -6.09281 | 145.39332 | 5219 ft | 80 kts | 357° |
| 2026-05-07 22:25 | -6.08761 | 145.39287 | 5168 ft | 70 kts | 353° |
| 2026-05-07 22:25 | -6.08338 | 145.39246 | 5173 ft | 46 kts | 355° |
| 2026-05-07 22:25 | -6.08056 | 145.39224 | 5198 ft | 33 kts | 356° |
| 2026-05-07 22:26 | -6.07956 | 145.39256 | 5208 ft | 17 kts | 62° |
| 2026-05-07 22:26 | -6.07864 | 145.39270 | 5219 ft | 11 kts | 72° |
| 2026-05-07 22:26 | -6.07896 | 145.39290 | 5216 ft | 0 kts | 175° |
| 2026-05-07 23:58 | -5.21001 | 145.78788 | 5204 ft | 3 kts | 167° |